sensor_id;sensor_type;location;lat;lon;timestamp;P1;durP1;ratioP1;P2;durP2;ratioP2
17566;SDS011;8901;52.088;5.084;2023-01-10T00:00:11;78.57;;;74.03;;
17566;SDS011;8901;52.088;5.084;2023-01-10T00:02:45;84.83;;;79.60;;
17566;SDS011;8901;52.088;5.084;2023-01-10T00:05:18;77.20;;;73.00;;
17566;SDS011;8901;52.088;5.084;2023-01-10T00:07:48;77.60;;;73.07;;
17566;SDS011;8901;52.088;5.084;2023-01-10T00:10:35;70.20;;;66.30;;
17566;SDS011;8901;52.088;5.084;2023-01-10T00:13:02;75.10;;;70.57;;
17566;SDS011;8901;52.088;5.084;2023-01-10T00:15:49;69.17;;;65.47;;
17566;SDS011;8901;52.088;5.084;2023-01-10T00:21:10;78.73;;;74.27;;
17566;SDS011;8901;52.088;5.084;2023-01-10T00:23:49;84.63;;;79.93;;
17566;SDS011;8901;52.088;5.084;2023-01-10T00:26:30;96.33;;;91.10;;
17566;SDS011;8901;52.088;5.084;2023-01-10T00:29:10;97.37;;;92.07;;
17566;SDS011;8901;52.088;5.084;2023-01-10T00:31:43;95.63;;;90.63;;
17566;SDS011;8901;52.088;5.084;2023-01-10T00:34:21;87.33;;;82.30;;
17566;SDS011;8901;52.088;5.084;2023-01-10T00:42:57;82.80;;;78.13;;
17566;SDS011;8901;52.088;5.084;2023-01-10T00:45:48;93.43;;;88.30;;
17566;SDS011;8901;52.088;5.084;2023-01-10T00:51:18;93.23;;;88.23;;
17566;SDS011;8901;52.088;5.084;2023-01-10T00:53:49;85.63;;;81.00;;
17566;SDS011;8901;52.088;5.084;2023-01-10T01:02:26;98.80;;;93.57;;
17566;SDS011;8901;52.088;5.084;2023-01-10T01:13:46;104.40;;;99.10;;
17566;SDS011;8901;52.088;5.084;2023-01-10T01:19:01;109.47;;;103.77;;
17566;SDS011;8901;52.088;5.084;2023-01-10T01:21:34;108.77;;;103.27;;
17566;SDS011;8901;52.088;5.084;2023-01-10T01:24:09;113.63;;;107.77;;
17566;SDS011;8901;52.088;5.084;2023-01-10T01:26:47;121.30;;;115.20;;
17566;SDS011;8901;52.088;5.084;2023-01-10T01:29:15;120.23;;;114.23;;
17566;SDS011;8901;52.088;5.084;2023-01-10T01:31:52;118.10;;;112.20;;
17566;SDS011;8901;52.088;5.084;2023-01-10T01:34:32;114.27;;;108.27;;
17566;SDS011;8901;52.088;5.084;2023-01-10T01:37:05;118.63;;;112.83;;
17566;SDS011;8901;52.088;5.084;2023-01-10T01:39:43;129.90;;;123.47;;
17566;SDS011;8901;52.088;5.084;2023-01-10T01:42:23;114.50;;;108.73;;
17566;SDS011;8901;52.088;5.084;2023-01-10T01:53:38;107.97;;;102.10;;
17566;SDS011;8901;52.088;5.084;2023-01-10T01:59:08;98.37;;;93.27;;
17566;SDS011;8901;52.088;5.084;2023-01-10T02:07:28;98.23;;;93.20;;
17566;SDS011;8901;52.088;5.084;2023-01-10T02:09:59;102.17;;;97.00;;
17566;SDS011;8901;52.088;5.084;2023-01-10T02:15:31;92.97;;;87.67;;
17566;SDS011;8901;52.088;5.084;2023-01-10T02:21:14;102.83;;;97.10;;
17566;SDS011;8901;52.088;5.084;2023-01-10T02:29:55;101.10;;;95.87;;
17566;SDS011;8901;52.088;5.084;2023-01-10T02:32:33;95.93;;;90.83;;
17566;SDS011;8901;52.088;5.084;2023-01-10T02:35:06;94.77;;;89.27;;
17566;SDS011;8901;52.088;5.084;2023-01-10T02:37:39;95.80;;;90.80;;
17566;SDS011;8901;52.088;5.084;2023-01-10T02:40:12;99.17;;;94.20;;
17566;SDS011;8901;52.088;5.084;2023-01-10T02:42:41;94.77;;;89.57;;
17566;SDS011;8901;52.088;5.084;2023-01-10T02:45:11;91.53;;;86.73;;
17566;SDS011;8901;52.088;5.084;2023-01-10T02:47:41;95.53;;;89.90;;
17566;SDS011;8901;52.088;5.084;2023-01-10T02:53:10;97.40;;;92.20;;
17566;SDS011;8901;52.088;5.084;2023-01-10T02:55:43;93.03;;;88.13;;
17566;SDS011;8901;52.088;5.084;2023-01-10T02:58:14;90.47;;;84.73;;
17566;SDS011;8901;52.088;5.084;2023-01-10T03:00:47;101.43;;;95.37;;
17566;SDS011;8901;52.088;5.084;2023-01-10T03:03:25;89.63;;;84.27;;
17566;SDS011;8901;52.088;5.084;2023-01-10T03:06:01;90.07;;;84.97;;
17566;SDS011;8901;52.088;5.084;2023-01-10T03:08:32;92.00;;;87.30;;
17566;SDS011;8901;52.088;5.084;2023-01-10T03:14:11;77.30;;;72.80;;
17566;SDS011;8901;52.088;5.084;2023-01-10T03:16:40;75.83;;;71.47;;
17566;SDS011;8901;52.088;5.084;2023-01-10T03:19:10;70.93;;;66.13;;
17566;SDS011;8901;52.088;5.084;2023-01-10T03:21:39;87.10;;;82.10;;
17566;SDS011;8901;52.088;5.084;2023-01-10T03:24:07;78.03;;;73.43;;
17566;SDS011;8901;52.088;5.084;2023-01-10T03:26:37;78.00;;;73.40;;
17566;SDS011;8901;52.088;5.084;2023-01-10T03:29:07;68.73;;;64.73;;
17566;SDS011;8901;52.088;5.084;2023-01-10T03:31:39;77.80;;;73.20;;
17566;SDS011;8901;52.088;5.084;2023-01-10T03:34:09;80.60;;;75.83;;
17566;SDS011;8901;52.088;5.084;2023-01-10T03:36:38;82.53;;;77.60;;
17566;SDS011;8901;52.088;5.084;2023-01-10T03:39:08;76.50;;;72.20;;
17566;SDS011;8901;52.088;5.084;2023-01-10T03:41:39;83.13;;;78.43;;
17566;SDS011;8901;52.088;5.084;2023-01-10T03:44:11;82.53;;;77.80;;
17566;SDS011;8901;52.088;5.084;2023-01-10T03:46:53;78.97;;;74.53;;
17566;SDS011;8901;52.088;5.084;2023-01-10T03:49:24;71.83;;;67.13;;
17566;SDS011;8901;52.088;5.084;2023-01-10T03:51:53;66.67;;;62.70;;
17566;SDS011;8901;52.088;5.084;2023-01-10T03:54:20;78.43;;;73.93;;
17566;SDS011;8901;52.088;5.084;2023-01-10T03:56:49;77.60;;;73.20;;
17566;SDS011;8901;52.088;5.084;2023-01-10T03:59:16;74.17;;;69.63;;
17566;SDS011;8901;52.088;5.084;2023-01-10T04:01:43;78.23;;;73.63;;
17566;SDS011;8901;52.088;5.084;2023-01-10T04:04:10;93.63;;;88.30;;
17566;SDS011;8901;52.088;5.084;2023-01-10T04:06:39;91.33;;;85.70;;
17566;SDS011;8901;52.088;5.084;2023-01-10T04:09:06;84.27;;;78.70;;
17566;SDS011;8901;52.088;5.084;2023-01-10T04:11:34;81.27;;;76.33;;
17566;SDS011;8901;52.088;5.084;2023-01-10T04:14:01;89.33;;;83.80;;
17566;SDS011;8901;52.088;5.084;2023-01-10T04:16:28;65.70;;;61.20;;
17566;SDS011;8901;52.088;5.084;2023-01-10T04:18:55;76.23;;;71.23;;
17566;SDS011;8901;52.088;5.084;2023-01-10T04:21:22;62.27;;;58.30;;
17566;SDS011;8901;52.088;5.084;2023-01-10T04:23:51;62.07;;;58.27;;
17566;SDS011;8901;52.088;5.084;2023-01-10T04:26:18;71.80;;;67.57;;
17566;SDS011;8901;52.088;5.084;2023-01-10T04:28:45;64.37;;;59.90;;
17566;SDS011;8901;52.088;5.084;2023-01-10T04:31:12;57.90;;;53.87;;
17566;SDS011;8901;52.088;5.084;2023-01-10T04:33:39;71.20;;;66.93;;
17566;SDS011;8901;52.088;5.084;2023-01-10T04:36:07;59.70;;;55.77;;
17566;SDS011;8901;52.088;5.084;2023-01-10T04:38:34;62.67;;;58.47;;
17566;SDS011;8901;52.088;5.084;2023-01-10T04:41:03;70.77;;;65.97;;
17566;SDS011;8901;52.088;5.084;2023-01-10T04:43:31;63.33;;;59.20;;
17566;SDS011;8901;52.088;5.084;2023-01-10T04:45:58;57.50;;;53.77;;
17566;SDS011;8901;52.088;5.084;2023-01-10T04:48:25;64.67;;;60.67;;
17566;SDS011;8901;52.088;5.084;2023-01-10T04:50:52;52.93;;;49.27;;
17566;SDS011;8901;52.088;5.084;2023-01-10T04:53:20;53.17;;;49.53;;
17566;SDS011;8901;52.088;5.084;2023-01-10T04:55:47;61.10;;;57.00;;
17566;SDS011;8901;52.088;5.084;2023-01-10T04:58:16;72.03;;;67.47;;
17566;SDS011;8901;52.088;5.084;2023-01-10T05:00:43;66.63;;;62.30;;
17566;SDS011;8901;52.088;5.084;2023-01-10T05:03:10;63.77;;;59.47;;
17566;SDS011;8901;52.088;5.084;2023-01-10T05:05:37;61.00;;;57.07;;
17566;SDS011;8901;52.088;5.084;2023-01-10T05:08:04;61.33;;;57.40;;
17566;SDS011;8901;52.088;5.084;2023-01-10T05:10:31;53.57;;;49.87;;
17566;SDS011;8901;52.088;5.084;2023-01-10T05:12:59;54.60;;;50.90;;
17566;SDS011;8901;52.088;5.084;2023-01-10T05:15:27;54.90;;;51.13;;
17566;SDS011;8901;52.088;5.084;2023-01-10T05:17:56;54.43;;;49.57;;
17566;SDS011;8901;52.088;5.084;2023-01-10T05:20:23;46.83;;;43.10;;
17566;SDS011;8901;52.088;5.084;2023-01-10T05:22:50;47.50;;;43.90;;
17566;SDS011;8901;52.088;5.084;2023-01-10T05:25:18;42.43;;;38.67;;
17566;SDS011;8901;52.088;5.084;2023-01-10T05:27:45;38.23;;;34.83;;
17566;SDS011;8901;52.088;5.084;2023-01-10T05:30:12;31.40;;;28.97;;
17566;SDS011;8901;52.088;5.084;2023-01-10T05:32:41;27.87;;;25.47;;
17566;SDS011;8901;52.088;5.084;2023-01-10T05:35:08;27.17;;;24.60;;
17566;SDS011;8901;52.088;5.084;2023-01-10T05:37:35;28.70;;;25.80;;
17566;SDS011;8901;52.088;5.084;2023-01-10T05:40:02;27.10;;;24.60;;
17566;SDS011;8901;52.088;5.084;2023-01-10T05:42:30;27.00;;;24.43;;
17566;SDS011;8901;52.088;5.084;2023-01-10T05:44:57;25.30;;;22.80;;
17566;SDS011;8901;52.088;5.084;2023-01-10T05:47:24;24.33;;;21.83;;
17566;SDS011;8901;52.088;5.084;2023-01-10T05:49:52;21.00;;;18.80;;
17566;SDS011;8901;52.088;5.084;2023-01-10T05:52:20;22.10;;;19.73;;
17566;SDS011;8901;52.088;5.084;2023-01-10T05:54:47;22.90;;;18.53;;
17566;SDS011;8901;52.088;5.084;2023-01-10T05:57:14;21.03;;;18.90;;
17566;SDS011;8901;52.088;5.084;2023-01-10T05:59:43;20.97;;;18.80;;
17566;SDS011;8901;52.088;5.084;2023-01-10T06:02:10;26.50;;;21.53;;
17566;SDS011;8901;52.088;5.084;2023-01-10T06:04:37;29.37;;;21.20;;
17566;SDS011;8901;52.088;5.084;2023-01-10T06:07:06;25.17;;;22.77;;
17566;SDS011;8901;52.088;5.084;2023-01-10T06:09:33;27.37;;;24.03;;
17566;SDS011;8901;52.088;5.084;2023-01-10T06:12:00;22.93;;;20.60;;
17566;SDS011;8901;52.088;5.084;2023-01-10T06:14:27;22.93;;;20.70;;
17566;SDS011;8901;52.088;5.084;2023-01-10T06:16:54;22.87;;;18.23;;
17566;SDS011;8901;52.088;5.084;2023-01-10T06:19:21;21.23;;;19.13;;
17566;SDS011;8901;52.088;5.084;2023-01-10T06:21:49;24.13;;;18.97;;
17566;SDS011;8901;52.088;5.084;2023-01-10T06:24:17;21.37;;;19.20;;
17566;SDS011;8901;52.088;5.084;2023-01-10T06:26:45;20.63;;;18.00;;
17566;SDS011;8901;52.088;5.084;2023-01-10T06:29:12;18.50;;;15.60;;
17566;SDS011;8901;52.088;5.084;2023-01-10T06:31:39;17.70;;;15.90;;
17566;SDS011;8901;52.088;5.084;2023-01-10T06:34:06;22.70;;;16.13;;
17566;SDS011;8901;52.088;5.084;2023-01-10T06:36:33;16.50;;;14.87;;
17566;SDS011;8901;52.088;5.084;2023-01-10T06:39:00;24.63;;;15.90;;
17566;SDS011;8901;52.088;5.084;2023-01-10T06:41:29;18.40;;;15.47;;
17566;SDS011;8901;52.088;5.084;2023-01-10T06:43:56;21.57;;;17.30;;
17566;SDS011;8901;52.088;5.084;2023-01-10T06:46:23;23.50;;;17.90;;
17566;SDS011;8901;52.088;5.084;2023-01-10T06:48:50;24.67;;;16.73;;
17566;SDS011;8901;52.088;5.084;2023-01-10T06:51:17;19.57;;;16.03;;
17566;SDS011;8901;52.088;5.084;2023-01-10T06:53:44;19.10;;;15.10;;
17566;SDS011;8901;52.088;5.084;2023-01-10T06:56:12;20.40;;;15.30;;
17566;SDS011;8901;52.088;5.084;2023-01-10T06:58:40;17.30;;;14.63;;
17566;SDS011;8901;52.088;5.084;2023-01-10T07:01:11;20.27;;;14.77;;
17566;SDS011;8901;52.088;5.084;2023-01-10T07:03:39;25.13;;;16.00;;
17566;SDS011;8901;52.088;5.084;2023-01-10T07:06:06;20.77;;;14.63;;
17566;SDS011;8901;52.088;5.084;2023-01-10T07:08:34;21.43;;;15.60;;
17566;SDS011;8901;52.088;5.084;2023-01-10T07:11:01;18.47;;;14.57;;
17566;SDS011;8901;52.088;5.084;2023-01-10T07:13:28;19.73;;;15.10;;
17566;SDS011;8901;52.088;5.084;2023-01-10T07:16:01;25.17;;;19.00;;
17566;SDS011;8901;52.088;5.084;2023-01-10T07:21:01;23.70;;;17.70;;
17566;SDS011;8901;52.088;5.084;2023-01-10T07:23:29;25.43;;;21.57;;
17566;SDS011;8901;52.088;5.084;2023-01-10T07:25:56;19.63;;;17.50;;
17566;SDS011;8901;52.088;5.084;2023-01-10T07:28:23;24.20;;;21.63;;
17566;SDS011;8901;52.088;5.084;2023-01-10T07:30:50;24.33;;;21.50;;
17566;SDS011;8901;52.088;5.084;2023-01-10T07:33:19;22.03;;;19.57;;
17566;SDS011;8901;52.088;5.084;2023-01-10T07:35:46;24.33;;;21.93;;
17566;SDS011;8901;52.088;5.084;2023-01-10T07:38:14;24.10;;;21.30;;
17566;SDS011;8901;52.088;5.084;2023-01-10T07:40:41;23.97;;;21.57;;
17566;SDS011;8901;52.088;5.084;2023-01-10T07:43:09;25.10;;;22.47;;
17566;SDS011;8901;52.088;5.084;2023-01-10T07:45:36;24.07;;;21.67;;
17566;SDS011;8901;52.088;5.084;2023-01-10T07:48:03;22.53;;;19.67;;
17566;SDS011;8901;52.088;5.084;2023-01-10T07:50:33;26.13;;;21.80;;
17566;SDS011;8901;52.088;5.084;2023-01-10T07:53:01;24.53;;;20.63;;
17566;SDS011;8901;52.088;5.084;2023-01-10T07:55:28;25.33;;;22.70;;
17566;SDS011;8901;52.088;5.084;2023-01-10T07:57:58;24.03;;;21.53;;
17566;SDS011;8901;52.088;5.084;2023-01-10T08:00:26;25.63;;;21.20;;
17566;SDS011;8901;52.088;5.084;2023-01-10T08:02:53;24.97;;;22.33;;
17566;SDS011;8901;52.088;5.084;2023-01-10T08:05:20;23.67;;;21.37;;
17566;SDS011;8901;52.088;5.084;2023-01-10T08:07:49;25.63;;;22.90;;
17566;SDS011;8901;52.088;5.084;2023-01-10T08:10:17;26.80;;;24.10;;
17566;SDS011;8901;52.088;5.084;2023-01-10T08:12:44;28.37;;;25.37;;
17566;SDS011;8901;52.088;5.084;2023-01-10T08:15:12;24.63;;;22.30;;
17566;SDS011;8901;52.088;5.084;2023-01-10T08:17:39;26.73;;;23.50;;
17566;SDS011;8901;52.088;5.084;2023-01-10T08:20:07;24.20;;;21.10;;
17566;SDS011;8901;52.088;5.084;2023-01-10T08:22:35;25.77;;;23.20;;
17566;SDS011;8901;52.088;5.084;2023-01-10T08:25:04;24.80;;;22.30;;
17566;SDS011;8901;52.088;5.084;2023-01-10T08:27:31;25.40;;;22.80;;
17566;SDS011;8901;52.088;5.084;2023-01-10T08:29:58;27.73;;;22.70;;
17566;SDS011;8901;52.088;5.084;2023-01-10T08:32:25;27.90;;;25.03;;
17566;SDS011;8901;52.088;5.084;2023-01-10T08:34:52;24.83;;;22.20;;
17566;SDS011;8901;52.088;5.084;2023-01-10T08:37:19;27.23;;;24.00;;
17566;SDS011;8901;52.088;5.084;2023-01-10T08:39:46;24.90;;;22.33;;
17566;SDS011;8901;52.088;5.084;2023-01-10T08:42:15;27.73;;;24.63;;
17566;SDS011;8901;52.088;5.084;2023-01-10T08:44:42;26.20;;;23.63;;
17566;SDS011;8901;52.088;5.084;2023-01-10T08:47:10;21.87;;;19.53;;
17566;SDS011;8901;52.088;5.084;2023-01-10T08:49:37;24.97;;;22.07;;
17566;SDS011;8901;52.088;5.084;2023-01-10T08:52:04;24.73;;;22.47;;
17566;SDS011;8901;52.088;5.084;2023-01-10T08:54:31;33.77;;;26.43;;
17566;SDS011;8901;52.088;5.084;2023-01-10T08:56:58;34.10;;;31.27;;
17566;SDS011;8901;52.088;5.084;2023-01-10T08:59:27;34.43;;;31.33;;
17566;SDS011;8901;52.088;5.084;2023-01-10T09:01:54;28.90;;;25.83;;
17566;SDS011;8901;52.088;5.084;2023-01-10T09:04:22;29.57;;;26.37;;
17566;SDS011;8901;52.088;5.084;2023-01-10T09:06:50;24.30;;;21.87;;
17566;SDS011;8901;52.088;5.084;2023-01-10T09:09:17;24.03;;;19.10;;
17566;SDS011;8901;52.088;5.084;2023-01-10T09:11:44;23.40;;;18.87;;
17566;SDS011;8901;52.088;5.084;2023-01-10T09:14:12;29.23;;;20.27;;
17566;SDS011;8901;52.088;5.084;2023-01-10T09:16:42;22.97;;;20.20;;
17566;SDS011;8901;52.088;5.084;2023-01-10T09:19:10;26.43;;;23.77;;
17566;SDS011;8901;52.088;5.084;2023-01-10T09:21:37;22.70;;;20.60;;
17566;SDS011;8901;52.088;5.084;2023-01-10T09:24:04;20.27;;;17.13;;
17566;SDS011;8901;52.088;5.084;2023-01-10T09:26:32;18.80;;;16.93;;
17566;SDS011;8901;52.088;5.084;2023-01-10T09:28:59;25.83;;;17.57;;
17566;SDS011;8901;52.088;5.084;2023-01-10T09:31:26;22.63;;;17.80;;
17566;SDS011;8901;52.088;5.084;2023-01-10T09:33:55;19.90;;;16.67;;
17566;SDS011;8901;52.088;5.084;2023-01-10T09:36:22;23.13;;;18.10;;
17566;SDS011;8901;52.088;5.084;2023-01-10T09:38:49;25.63;;;16.17;;
17566;SDS011;8901;52.088;5.084;2023-01-10T09:41:20;17.87;;;16.03;;
17566;SDS011;8901;52.088;5.084;2023-01-10T09:43:53;15.30;;;13.80;;
17566;SDS011;8901;52.088;5.084;2023-01-10T09:46:25;17.67;;;13.63;;
17566;SDS011;8901;52.088;5.084;2023-01-10T09:49:00;22.17;;;16.77;;
17566;SDS011;8901;52.088;5.084;2023-01-10T09:51:31;18.97;;;16.73;;
17566;SDS011;8901;52.088;5.084;2023-01-10T09:54:01;19.43;;;15.97;;
17566;SDS011;8901;52.088;5.084;2023-01-10T09:56:29;23.70;;;15.70;;
17566;SDS011;8901;52.088;5.084;2023-01-10T09:58:57;22.07;;;16.03;;
17566;SDS011;8901;52.088;5.084;2023-01-10T10:01:28;23.77;;;16.20;;
17566;SDS011;8901;52.088;5.084;2023-01-10T10:04:04;21.23;;;16.23;;
17566;SDS011;8901;52.088;5.084;2023-01-10T10:06:33;17.93;;;15.23;;
17566;SDS011;8901;52.088;5.084;2023-01-10T10:09:00;21.63;;;16.13;;
17566;SDS011;8901;52.088;5.084;2023-01-10T10:11:36;20.27;;;15.70;;
17566;SDS011;8901;52.088;5.084;2023-01-10T10:14:10;17.57;;;15.67;;
17566;SDS011;8901;52.088;5.084;2023-01-10T10:16:49;24.93;;;16.23;;
17566;SDS011;8901;52.088;5.084;2023-01-10T10:19:22;17.20;;;15.00;;
17566;SDS011;8901;52.088;5.084;2023-01-10T10:21:55;21.73;;;16.27;;
17566;SDS011;8901;52.088;5.084;2023-01-10T10:24:28;23.60;;;17.10;;
17566;SDS011;8901;52.088;5.084;2023-01-10T10:26:57;20.27;;;17.37;;
17566;SDS011;8901;52.088;5.084;2023-01-10T10:29:32;19.47;;;16.40;;
17566;SDS011;8901;52.088;5.084;2023-01-10T10:32:11;19.43;;;15.97;;
17566;SDS011;8901;52.088;5.084;2023-01-10T10:34:44;19.27;;;17.27;;
17566;SDS011;8901;52.088;5.084;2023-01-10T10:37:16;21.57;;;15.70;;
17566;SDS011;8901;52.088;5.084;2023-01-10T10:39:46;20.80;;;14.00;;
17566;SDS011;8901;52.088;5.084;2023-01-10T10:42:17;21.27;;;15.20;;
17566;SDS011;8901;52.088;5.084;2023-01-10T10:44:45;22.30;;;15.63;;
17566;SDS011;8901;52.088;5.084;2023-01-10T10:47:13;16.97;;;15.30;;
17566;SDS011;8901;52.088;5.084;2023-01-10T10:49:42;17.77;;;15.97;;
17566;SDS011;8901;52.088;5.084;2023-01-10T10:52:13;20.80;;;16.63;;
17566;SDS011;8901;52.088;5.084;2023-01-10T10:54:43;21.53;;;16.10;;
17566;SDS011;8901;52.088;5.084;2023-01-10T10:57:10;20.93;;;15.60;;
17566;SDS011;8901;52.088;5.084;2023-01-10T10:59:37;19.90;;;14.87;;
17566;SDS011;8901;52.088;5.084;2023-01-10T11:02:10;21.10;;;15.80;;
17566;SDS011;8901;52.088;5.084;2023-01-10T11:04:43;19.87;;;14.70;;
17566;SDS011;8901;52.088;5.084;2023-01-10T11:07:10;20.70;;;14.63;;
17566;SDS011;8901;52.088;5.084;2023-01-10T11:09:42;23.13;;;16.90;;
17566;SDS011;8901;52.088;5.084;2023-01-10T11:12:10;19.80;;;14.00;;
17566;SDS011;8901;52.088;5.084;2023-01-10T11:14:41;18.57;;;13.60;;
17566;SDS011;8901;52.088;5.084;2023-01-10T11:17:18;18.90;;;14.67;;
17566;SDS011;8901;52.088;5.084;2023-01-10T11:19:56;21.87;;;15.97;;
17566;SDS011;8901;52.088;5.084;2023-01-10T11:22:24;17.83;;;15.93;;
17566;SDS011;8901;52.088;5.084;2023-01-10T11:24:53;19.83;;;16.53;;
17566;SDS011;8901;52.088;5.084;2023-01-10T11:27:21;19.83;;;15.90;;
17566;SDS011;8901;52.088;5.084;2023-01-10T11:29:49;19.97;;;16.27;;
17566;SDS011;8901;52.088;5.084;2023-01-10T11:32:18;19.83;;;16.03;;
17566;SDS011;8901;52.088;5.084;2023-01-10T11:34:49;18.07;;;15.10;;
17566;SDS011;8901;52.088;5.084;2023-01-10T11:37:24;17.83;;;15.13;;
17566;SDS011;8901;52.088;5.084;2023-01-10T11:42:36;17.00;;;15.20;;
17566;SDS011;8901;52.088;5.084;2023-01-10T11:45:18;19.00;;;14.00;;
17566;SDS011;8901;52.088;5.084;2023-01-10T11:47:47;15.23;;;12.97;;
17566;SDS011;8901;52.088;5.084;2023-01-10T11:50:19;18.93;;;15.13;;
17566;SDS011;8901;52.088;5.084;2023-01-10T11:52:47;18.83;;;14.10;;
17566;SDS011;8901;52.088;5.084;2023-01-10T11:55:17;15.30;;;13.80;;
17566;SDS011;8901;52.088;5.084;2023-01-10T11:57:46;21.43;;;15.07;;
17566;SDS011;8901;52.088;5.084;2023-01-10T12:00:21;17.60;;;14.83;;
17566;SDS011;8901;52.088;5.084;2023-01-10T12:02:48;19.47;;;15.83;;
17566;SDS011;8901;52.088;5.084;2023-01-10T12:05:17;18.73;;;14.77;;
17566;SDS011;8901;52.088;5.084;2023-01-10T12:07:54;20.37;;;14.50;;
17566;SDS011;8901;52.088;5.084;2023-01-10T12:10:24;18.17;;;13.93;;
17566;SDS011;8901;52.088;5.084;2023-01-10T12:12:54;17.53;;;12.90;;
17566;SDS011;8901;52.088;5.084;2023-01-10T12:15:23;19.47;;;13.03;;
17566;SDS011;8901;52.088;5.084;2023-01-10T12:17:51;18.93;;;14.20;;
17566;SDS011;8901;52.088;5.084;2023-01-10T12:20:22;22.23;;;14.33;;
17566;SDS011;8901;52.088;5.084;2023-01-10T12:22:52;18.27;;;15.20;;
17566;SDS011;8901;52.088;5.084;2023-01-10T12:25:21;18.97;;;14.20;;
17566;SDS011;8901;52.088;5.084;2023-01-10T12:27:48;18.20;;;14.07;;
17566;SDS011;8901;52.088;5.084;2023-01-10T12:30:17;16.97;;;13.87;;
17566;SDS011;8901;52.088;5.084;2023-01-10T12:32:47;20.83;;;15.03;;
17566;SDS011;8901;52.088;5.084;2023-01-10T12:35:17;18.83;;;14.43;;
17566;SDS011;8901;52.088;5.084;2023-01-10T12:37:45;16.60;;;14.60;;
17566;SDS011;8901;52.088;5.084;2023-01-10T12:40:21;16.13;;;14.07;;
17566;SDS011;8901;52.088;5.084;2023-01-10T12:42:51;18.40;;;14.20;;
17566;SDS011;8901;52.088;5.084;2023-01-10T12:45:41;18.30;;;14.07;;
17566;SDS011;8901;52.088;5.084;2023-01-10T12:48:16;19.53;;;13.70;;
17566;SDS011;8901;52.088;5.084;2023-01-10T12:50:46;22.00;;;15.50;;
17566;SDS011;8901;52.088;5.084;2023-01-10T12:53:22;16.47;;;14.77;;
17566;SDS011;8901;52.088;5.084;2023-01-10T12:55:49;18.03;;;15.37;;
17566;SDS011;8901;52.088;5.084;2023-01-10T12:58:18;21.20;;;13.90;;
17566;SDS011;8901;52.088;5.084;2023-01-10T13:00:49;17.33;;;13.37;;
17566;SDS011;8901;52.088;5.084;2023-01-10T13:03:18;17.73;;;13.70;;
17566;SDS011;8901;52.088;5.084;2023-01-10T13:05:51;19.93;;;13.60;;
17566;SDS011;8901;52.088;5.084;2023-01-10T13:08:19;15.23;;;13.63;;
17566;SDS011;8901;52.088;5.084;2023-01-10T13:10:49;21.00;;;13.27;;
17566;SDS011;8901;52.088;5.084;2023-01-10T13:13:19;16.80;;;12.80;;
17566;SDS011;8901;52.088;5.084;2023-01-10T13:15:51;16.30;;;12.67;;
17566;SDS011;8901;52.088;5.084;2023-01-10T13:18:22;19.80;;;14.50;;
17566;SDS011;8901;52.088;5.084;2023-01-10T13:21:00;19.60;;;14.37;;
17566;SDS011;8901;52.088;5.084;2023-01-10T13:23:29;17.13;;;15.00;;
17566;SDS011;8901;52.088;5.084;2023-01-10T13:25:58;23.37;;;15.07;;
17566;SDS011;8901;52.088;5.084;2023-01-10T13:28:27;20.87;;;14.17;;
17566;SDS011;8901;52.088;5.084;2023-01-10T13:30:56;20.07;;;14.27;;
17566;SDS011;8901;52.088;5.084;2023-01-10T13:33:25;20.87;;;13.77;;
17566;SDS011;8901;52.088;5.084;2023-01-10T13:35:55;15.33;;;13.17;;
17566;SDS011;8901;52.088;5.084;2023-01-10T13:38:24;19.23;;;13.87;;
17566;SDS011;8901;52.088;5.084;2023-01-10T13:40:57;19.03;;;13.43;;
17566;SDS011;8901;52.088;5.084;2023-01-10T13:43:36;20.07;;;13.80;;
17566;SDS011;8901;52.088;5.084;2023-01-10T13:51:31;18.50;;;13.23;;
17566;SDS011;8901;52.088;5.084;2023-01-10T13:54:00;22.53;;;13.10;;
17566;SDS011;8901;52.088;5.084;2023-01-10T13:56:29;22.13;;;14.63;;
17566;SDS011;8901;52.088;5.084;2023-01-10T13:58:56;19.23;;;12.37;;
17566;SDS011;8901;52.088;5.084;2023-01-10T14:01:41;19.13;;;13.47;;
17566;SDS011;8901;52.088;5.084;2023-01-10T14:04:26;18.23;;;12.70;;
17566;SDS011;8901;52.088;5.084;2023-01-10T14:07:12;15.80;;;13.53;;
17566;SDS011;8901;52.088;5.084;2023-01-10T14:09:42;17.43;;;13.07;;
17566;SDS011;8901;52.088;5.084;2023-01-10T14:12:16;17.20;;;13.07;;
17566;SDS011;8901;52.088;5.084;2023-01-10T14:14:49;16.20;;;13.13;;
17566;SDS011;8901;52.088;5.084;2023-01-10T14:17:19;17.33;;;14.00;;
17566;SDS011;8901;52.088;5.084;2023-01-10T14:19:48;21.90;;;15.27;;
17566;SDS011;8901;52.088;5.084;2023-01-10T14:22:27;21.17;;;17.83;;
17566;SDS011;8901;52.088;5.084;2023-01-10T14:25:04;24.13;;;20.53;;
17566;SDS011;8901;52.088;5.084;2023-01-10T14:27:35;22.93;;;15.73;;
17566;SDS011;8901;52.088;5.084;2023-01-10T14:30:05;32.03;;;23.57;;
17566;SDS011;8901;52.088;5.084;2023-01-10T14:32:34;24.67;;;18.43;;
17566;SDS011;8901;52.088;5.084;2023-01-10T14:35:13;44.67;;;29.93;;
17566;SDS011;8901;52.088;5.084;2023-01-10T14:37:50;26.50;;;19.67;;
17566;SDS011;8901;52.088;5.084;2023-01-10T14:40:23;24.97;;;19.07;;
17566;SDS011;8901;52.088;5.084;2023-01-10T14:45:32;29.30;;;20.23;;
17566;SDS011;8901;52.088;5.084;2023-01-10T14:50:43;27.63;;;21.17;;
17566;SDS011;8901;52.088;5.084;2023-01-10T14:53:16;30.73;;;22.50;;
17566;SDS011;8901;52.088;5.084;2023-01-10T14:55:56;26.47;;;20.03;;
17566;SDS011;8901;52.088;5.084;2023-01-10T14:58:25;19.43;;;16.77;;
17566;SDS011;8901;52.088;5.084;2023-01-10T15:00:53;27.83;;;20.87;;
17566;SDS011;8901;52.088;5.084;2023-01-10T15:03:33;31.27;;;24.07;;
17566;SDS011;8901;52.088;5.084;2023-01-10T15:06:15;20.57;;;16.33;;
17566;SDS011;8901;52.088;5.084;2023-01-10T15:08:44;22.50;;;19.80;;
17566;SDS011;8901;52.088;5.084;2023-01-10T15:11:21;20.23;;;14.97;;
17566;SDS011;8901;52.088;5.084;2023-01-10T15:13:51;21.23;;;16.20;;
17566;SDS011;8901;52.088;5.084;2023-01-10T15:16:32;19.03;;;15.57;;
17566;SDS011;8901;52.088;5.084;2023-01-10T15:19:02;16.33;;;12.70;;
17566;SDS011;8901;52.088;5.084;2023-01-10T15:21:31;19.97;;;16.17;;
17566;SDS011;8901;52.088;5.084;2023-01-10T15:23:59;21.67;;;15.90;;
17566;SDS011;8901;52.088;5.084;2023-01-10T15:26:29;19.83;;;15.77;;
17566;SDS011;8901;52.088;5.084;2023-01-10T15:29:05;22.07;;;15.97;;
17566;SDS011;8901;52.088;5.084;2023-01-10T15:31:35;26.10;;;16.83;;
17566;SDS011;8901;52.088;5.084;2023-01-10T15:34:05;20.80;;;13.43;;
17566;SDS011;8901;52.088;5.084;2023-01-10T15:36:33;17.00;;;14.23;;
17566;SDS011;8901;52.088;5.084;2023-01-10T15:39:02;14.47;;;12.10;;
17566;SDS011;8901;52.088;5.084;2023-01-10T15:41:29;13.83;;;11.63;;
17566;SDS011;8901;52.088;5.084;2023-01-10T15:46:52;14.00;;;12.10;;
17566;SDS011;8901;52.088;5.084;2023-01-10T15:49:20;15.03;;;11.80;;
17566;SDS011;8901;52.088;5.084;2023-01-10T15:51:47;14.37;;;11.67;;
17566;SDS011;8901;52.088;5.084;2023-01-10T15:54:28;13.60;;;11.87;;
17566;SDS011;8901;52.088;5.084;2023-01-10T15:56:56;12.33;;;11.03;;
17566;SDS011;8901;52.088;5.084;2023-01-10T15:59:28;12.63;;;10.63;;
17566;SDS011;8901;52.088;5.084;2023-01-10T16:01:59;13.00;;;11.33;;
17566;SDS011;8901;52.088;5.084;2023-01-10T16:04:32;14.27;;;11.70;;
17566;SDS011;8901;52.088;5.084;2023-01-10T16:07:04;12.33;;;10.03;;
17566;SDS011;8901;52.088;5.084;2023-01-10T16:09:33;12.70;;;10.23;;
17566;SDS011;8901;52.088;5.084;2023-01-10T16:12:01;11.90;;;10.70;;
17566;SDS011;8901;52.088;5.084;2023-01-10T16:14:46;12.63;;;11.30;;